sensor_id;sensor_type;location;lat;lon;timestamp;pressure;altitude;pressure_sealevel;temperature;humidity
51249;BME280;39642;47.556;18.728;2022-12-10T00:01:06;97975.72;;;21.40;39.50
51249;BME280;39642;47.556;18.728;2022-12-10T00:03:32;97974.91;;;21.39;39.52
51249;BME280;39642;47.556;18.728;2022-12-10T00:06:00;97981.97;;;21.39;39.53
51249;BME280;39642;47.556;18.728;2022-12-10T00:08:27;97981.16;;;21.38;39.54
51249;BME280;39642;47.556;18.728;2022-12-10T00:10:52;97980.31;;;21.38;39.51
51249;BME280;39642;47.556;18.728;2022-12-10T00:13:18;97981.31;;;21.37;39.54
51249;BME280;39642;47.556;18.728;2022-12-10T00:15:44;97990.09;;;21.37;39.52
51249;BME280;39642;47.556;18.728;2022-12-10T00:18:10;97995.38;;;21.37;39.55
51249;BME280;39642;47.556;18.728;2022-12-10T00:20:37;98001.63;;;21.36;39.54
51249;BME280;39642;47.556;18.728;2022-12-10T00:23:03;98006.94;;;21.36;39.56
51249;BME280;39642;47.556;18.728;2022-12-10T00:25:29;98008.75;;;21.36;39.58
51249;BME280;39642;47.556;18.728;2022-12-10T00:27:56;98009.56;;;21.36;39.56
51249;BME280;39642;47.556;18.728;2022-12-10T00:30:22;98025.47;;;21.36;39.63
51249;BME280;39642;47.556;18.728;2022-12-10T00:32:48;98021.97;;;21.36;39.58
51249;BME280;39642;47.556;18.728;2022-12-10T00:35:14;98011.41;;;21.36;39.60
51249;BME280;39642;47.556;18.728;2022-12-10T00:37:40;98005.13;;;21.37;39.58
51249;BME280;39642;47.556;18.728;2022-12-10T00:40:07;98011.41;;;21.36;39.60
51249;BME280;39642;47.556;18.728;2022-12-10T00:42:33;98019.22;;;21.37;39.55
51249;BME280;39642;47.556;18.728;2022-12-10T00:44:58;98021.84;;;21.37;39.58
51249;BME280;39642;47.556;18.728;2022-12-10T00:47:24;98021.03;;;21.37;39.59
51249;BME280;39642;47.556;18.728;2022-12-10T00:49:50;98031.47;;;21.38;39.56
51249;BME280;39642;47.556;18.728;2022-12-10T00:52:16;98025.34;;;21.38;39.52
51249;BME280;39642;47.556;18.728;2022-12-10T00:54:42;98027.16;;;21.37;39.55
51249;BME280;39642;47.556;18.728;2022-12-10T00:57:08;98024.34;;;21.39;39.52
51249;BME280;39642;47.556;18.728;2022-12-10T00:59:34;98028.97;;;21.37;39.53
51249;BME280;39642;47.556;18.728;2022-12-10T01:02:00;98038.56;;;21.38;39.45
51249;BME280;39642;47.556;18.728;2022-12-10T01:04:26;98038.56;;;21.38;39.50
51249;BME280;39642;47.556;18.728;2022-12-10T01:06:53;98026.31;;;21.37;39.46
51249;BME280;39642;47.556;18.728;2022-12-10T01:09:22;98030.62;;;21.38;39.46
51249;BME280;39642;47.556;18.728;2022-12-10T01:11:49;98042.22;;;21.37;39.46
51249;BME280;39642;47.556;18.728;2022-12-10T01:14:18;98040.38;;;21.37;39.44
51249;BME280;39642;47.556;18.728;2022-12-10T01:16:45;98050.97;;;21.37;39.46
51249;BME280;39642;47.556;18.728;2022-12-10T01:19:12;98054.59;;;21.36;39.45
51249;BME280;39642;47.556;18.728;2022-12-10T01:21:38;98048.47;;;21.36;39.41
51249;BME280;39642;47.556;18.728;2022-12-10T01:24:05;98047.63;;;21.35;39.42
51249;BME280;39642;47.556;18.728;2022-12-10T01:26:33;98049.44;;;21.35;39.46
51249;BME280;39642;47.556;18.728;2022-12-10T01:28:59;98045.09;;;21.34;39.44
51249;BME280;39642;47.556;18.728;2022-12-10T01:31:28;98053.88;;;21.34;39.42
51249;BME280;39642;47.556;18.728;2022-12-10T01:33:55;98049.56;;;21.33;39.48
51249;BME280;39642;47.556;18.728;2022-12-10T01:36:24;98037.16;;;21.34;39.46
51249;BME280;39642;47.556;18.728;2022-12-10T01:38:51;98057.53;;;21.33;39.47
51249;BME280;39642;47.556;18.728;2022-12-10T01:41:21;98054.88;;;21.33;39.52
51249;BME280;39642;47.556;18.728;2022-12-10T01:44:02;98054.88;;;21.33;39.49
51249;BME280;39642;47.556;18.728;2022-12-10T01:46:33;98054.03;;;21.33;39.53
51249;BME280;39642;47.556;18.728;2022-12-10T01:49:01;98055.84;;;21.32;39.56
51249;BME280;39642;47.556;18.728;2022-12-10T01:51:30;98057.53;;;21.33;39.50
51249;BME280;39642;47.556;18.728;2022-12-10T01:53:57;98054.88;;;21.33;39.50
51249;BME280;39642;47.556;18.728;2022-12-10T01:56:23;98066.28;;;21.34;39.47
51249;BME280;39642;47.556;18.728;2022-12-10T01:58:56;98066.28;;;21.34;39.45
51249;BME280;39642;47.556;18.728;2022-12-10T02:09:23;98080.22;;;21.36;39.39
51249;BME280;39642;47.556;18.728;2022-12-10T02:12:01;98087.34;;;21.35;39.38
51249;BME280;39642;47.556;18.728;2022-12-10T02:14:32;98093.47;;;21.36;39.34
51249;BME280;39642;47.556;18.728;2022-12-10T02:17:20;98089.16;;;21.35;39.36
51249;BME280;39642;47.556;18.728;2022-12-10T02:20:00;98099.75;;;21.35;39.34
51249;BME280;39642;47.556;18.728;2022-12-10T02:22:32;98097.09;;;21.35;39.32
51249;BME280;39642;47.556;18.728;2022-12-10T02:24:59;98113.00;;;21.35;39.33
51249;BME280;39642;47.556;18.728;2022-12-10T02:27:44;98107.81;;;21.33;39.34
51249;BME280;39642;47.556;18.728;2022-12-10T02:30:12;98119.25;;;21.34;39.31
51249;BME280;39642;47.556;18.728;2022-12-10T02:32:39;98110.47;;;21.33;39.31
51249;BME280;39642;47.556;18.728;2022-12-10T02:35:12;98099.88;;;21.33;39.31
51249;BME280;39642;47.556;18.728;2022-12-10T02:37:49;98093.75;;;21.33;39.26
51249;BME280;39642;47.556;18.728;2022-12-10T02:40:20;98093.75;;;21.33;39.32
51249;BME280;39642;47.556;18.728;2022-12-10T02:42:49;98089.28;;;21.33;39.24
51249;BME280;39642;47.556;18.728;2022-12-10T02:45:17;98080.50;;;21.33;39.31
51249;BME280;39642;47.556;18.728;2022-12-10T02:47:44;98064.75;;;21.31;39.21
51249;BME280;39642;47.556;18.728;2022-12-10T02:50:12;98073.53;;;21.32;39.25
51249;BME280;39642;47.556;18.728;2022-12-10T02:52:41;98085.09;;;21.31;39.28
51249;BME280;39642;47.556;18.728;2022-12-10T02:55:11;98084.28;;;21.30;39.27
51249;BME280;39642;47.556;18.728;2022-12-10T03:00:25;98092.22;;;21.30;39.20
51249;BME280;39642;47.556;18.728;2022-12-10T03:05:52;98088.72;;;21.30;39.12
51249;BME280;39642;47.556;18.728;2022-12-10T03:08:27;98086.06;;;21.30;39.20
51249;BME280;39642;47.556;18.728;2022-12-10T03:11:13;98095.00;;;21.29;39.21
51249;BME280;39642;47.556;18.728;2022-12-10T03:14:02;98094.16;;;21.28;39.18
51249;BME280;39642;47.556;18.728;2022-12-10T03:16:37;98104.75;;;21.28;39.16
51249;BME280;39642;47.556;18.728;2022-12-10T03:19:09;98127.59;;;21.29;39.19
51249;BME280;39642;47.556;18.728;2022-12-10T03:21:37;98122.41;;;21.28;39.16
51249;BME280;39642;47.556;18.728;2022-12-10T03:24:05;98120.63;;;21.28;39.07
51249;BME280;39642;47.556;18.728;2022-12-10T03:26:32;98123.28;;;21.28;39.06
51249;BME280;39642;47.556;18.728;2022-12-10T03:29:04;98131.22;;;21.28;39.00
51249;BME280;39642;47.556;18.728;2022-12-10T03:31:31;98125.94;;;21.28;38.98
51249;BME280;39642;47.556;18.728;2022-12-10T03:33:59;98116.28;;;21.27;39.02
51249;BME280;39642;47.556;18.728;2022-12-10T03:36:26;98113.66;;;21.27;39.02
51249;BME280;39642;47.556;18.728;2022-12-10T03:38:53;98113.66;;;21.27;39.12
51249;BME280;39642;47.556;18.728;2022-12-10T03:41:19;98104.88;;;21.27;39.05
51249;BME280;39642;47.556;18.728;2022-12-10T03:43:59;98112.81;;;21.27;38.97
51249;BME280;39642;47.556;18.728;2022-12-10T03:46:27;98129.69;;;21.26;39.00
51249;BME280;39642;47.556;18.728;2022-12-10T03:48:54;98134.97;;;21.26;38.94
51249;BME280;39642;47.556;18.728;2022-12-10T03:51:20;98144.72;;;21.25;39.05
51249;BME280;39642;47.556;18.728;2022-12-10T03:53:46;98141.09;;;21.26;39.05
51249;BME280;39642;47.556;18.728;2022-12-10T03:56:16;98131.47;;;21.25;38.98
51249;BME280;39642;47.556;18.728;2022-12-10T03:58:42;98132.47;;;21.24;38.98
51249;BME280;39642;47.556;18.728;2022-12-10T04:01:08;98131.47;;;21.25;38.88
51249;BME280;39642;47.556;18.728;2022-12-10T04:03:35;98128.00;;;21.25;38.99
51249;BME280;39642;47.556;18.728;2022-12-10T04:06:03;98124.50;;;21.24;39.00
51249;BME280;39642;47.556;18.728;2022-12-10T04:08:30;98117.41;;;21.25;38.96
51249;BME280;39642;47.556;18.728;2022-12-10T04:11:04;98121.03;;;21.24;38.93
51249;BME280;39642;47.556;18.728;2022-12-10T04:13:32;98125.47;;;21.23;38.87
51249;BME280;39642;47.556;18.728;2022-12-10T04:16:33;98121.88;;;21.24;38.87
51249;BME280;39642;47.556;18.728;2022-12-10T04:19:02;98126.34;;;21.24;38.87
51249;BME280;39642;47.556;18.728;2022-12-10T04:21:30;98131.63;;;21.24;39.01
51249;BME280;39642;47.556;18.728;2022-12-10T04:24:18;98142.22;;;21.24;38.84
51249;BME280;39642;47.556;18.728;2022-12-10T04:27:26;98147.50;;;21.24;38.76
51249;BME280;39642;47.556;18.728;2022-12-10T04:29:53;98146.53;;;21.25;38.86
51249;BME280;39642;47.556;18.728;2022-12-10T04:32:21;98151.00;;;21.24;38.77
51249;BME280;39642;47.556;18.728;2022-12-10T04:34:47;98156.41;;;21.23;38.75
51249;BME280;39642;47.556;18.728;2022-12-10T04:37:13;98152.81;;;21.24;38.80
51249;BME280;39642;47.556;18.728;2022-12-10T04:39:39;98155.44;;;21.24;38.77
51249;BME280;39642;47.556;18.728;2022-12-10T04:42:06;98154.59;;;21.23;38.84
51249;BME280;39642;47.556;18.728;2022-12-10T04:44:33;98165.19;;;21.23;38.85
51249;BME280;39642;47.556;18.728;2022-12-10T04:46:59;98173.97;;;21.24;38.77
51249;BME280;39642;47.556;18.728;2022-12-10T04:49:25;98172.28;;;21.23;38.80
51249;BME280;39642;47.556;18.728;2022-12-10T04:51:52;98172.16;;;21.24;38.86
51249;BME280;39642;47.556;18.728;2022-12-10T04:54:19;98161.56;;;21.24;38.76
51249;BME280;39642;47.556;18.728;2022-12-10T04:56:45;98163.38;;;21.24;38.83
51249;BME280;39642;47.556;18.728;2022-12-10T04:59:11;98157.13;;;21.25;38.66
51249;BME280;39642;47.556;18.728;2022-12-10T05:01:38;98158.94;;;21.24;38.66
51249;BME280;39642;47.556;18.728;2022-12-10T05:04:05;98152.81;;;21.24;38.78
51249;BME280;39642;47.556;18.728;2022-12-10T05:06:32;98146.66;;;21.23;38.81
51249;BME280;39642;47.556;18.728;2022-12-10T05:08:58;98142.22;;;21.24;38.72
51249;BME280;39642;47.556;18.728;2022-12-10T05:11:26;98140.41;;;21.24;38.64
51249;BME280;39642;47.556;18.728;2022-12-10T05:13:54;98142.22;;;21.24;38.73
51249;BME280;39642;47.556;18.728;2022-12-10T05:16:21;98144.88;;;21.24;38.59
51249;BME280;39642;47.556;18.728;2022-12-10T05:18:48;98148.34;;;21.24;38.61
51249;BME280;39642;47.556;18.728;2022-12-10T05:21:16;98142.22;;;21.24;38.55
51249;BME280;39642;47.556;18.728;2022-12-10T05:23:44;98148.34;;;21.24;38.61
51249;BME280;39642;47.556;18.728;2022-12-10T05:26:14;98149.16;;;21.25;38.58
51249;BME280;39642;47.556;18.728;2022-12-10T05:28:44;98150.16;;;21.24;38.51
51249;BME280;39642;47.556;18.728;2022-12-10T05:31:29;98157.22;;;21.23;38.48
51249;BME280;39642;47.556;18.728;2022-12-10T05:33:57;98163.38;;;21.24;38.58
51249;BME280;39642;47.556;18.728;2022-12-10T05:36:27;98172.16;;;21.24;38.58
51249;BME280;39642;47.556;18.728;2022-12-10T05:38:54;98174.81;;;21.24;38.52
51249;BME280;39642;47.556;18.728;2022-12-10T05:41:25;98189.88;;;21.24;38.54
51249;BME280;39642;47.556;18.728;2022-12-10T05:43:54;98191.53;;;21.25;38.55
51249;BME280;39642;47.556;18.728;2022-12-10T05:46:23;98188.03;;;21.24;38.48
51249;BME280;39642;47.556;18.728;2022-12-10T05:48:50;98203.94;;;21.24;38.56
51249;BME280;39642;47.556;18.728;2022-12-10T05:51:18;98200.44;;;21.24;38.42
51249;BME280;39642;47.556;18.728;2022-12-10T05:53:45;98185.41;;;21.24;38.51
51249;BME280;39642;47.556;18.728;2022-12-10T05:56:14;98191.66;;;21.23;38.48
51249;BME280;39642;47.556;18.728;2022-12-10T05:58:42;98190.69;;;21.24;38.41
51249;BME280;39642;47.556;18.728;2022-12-10T06:01:20;98182.75;;;21.24;38.44
51249;BME280;39642;47.556;18.728;2022-12-10T06:03:46;98173.13;;;21.23;38.41
51249;BME280;39642;47.556;18.728;2022-12-10T06:06:13;98163.38;;;21.24;38.47
51249;BME280;39642;47.556;18.728;2022-12-10T06:08:39;98168.69;;;21.24;38.38
51249;BME280;39642;47.556;18.728;2022-12-10T06:11:08;98167.00;;;21.23;38.52
51249;BME280;39642;47.556;18.728;2022-12-10T06:13:35;98179.28;;;21.24;38.42
51249;BME280;39642;47.556;18.728;2022-12-10T06:16:05;98182.88;;;21.23;38.34
51249;BME280;39642;47.556;18.728;2022-12-10T06:18:31;98212.81;;;21.23;38.42
51249;BME280;39642;47.556;18.728;2022-12-10T06:20:57;98212.81;;;21.23;38.34
51249;BME280;39642;47.556;18.728;2022-12-10T06:23:23;98209.34;;;21.23;38.34
51249;BME280;39642;47.556;18.728;2022-12-10T06:25:49;98218.13;;;21.23;38.33
51249;BME280;39642;47.556;18.728;2022-12-10T06:28:15;98219.09;;;21.22;38.33
51249;BME280;39642;47.556;18.728;2022-12-10T06:30:41;98223.41;;;21.23;38.26
51249;BME280;39642;47.556;18.728;2022-12-10T06:33:06;98222.59;;;21.23;38.30
51249;BME280;39642;47.556;18.728;2022-12-10T06:35:32;98225.22;;;21.23;38.29
51249;BME280;39642;47.556;18.728;2022-12-10T06:37:58;98241.94;;;21.23;38.36
51249;BME280;39642;47.556;18.728;2022-12-10T06:40:24;98240.16;;;21.24;38.41
51249;BME280;39642;47.556;18.728;2022-12-10T06:42:51;98231.34;;;21.23;38.33
51249;BME280;39642;47.556;18.728;2022-12-10T06:45:17;98228.72;;;21.23;38.43
51249;BME280;39642;47.556;18.728;2022-12-10T06:47:43;98226.91;;;21.24;38.41
51249;BME280;39642;47.556;18.728;2022-12-10T06:50:09;98216.34;;;21.24;38.37
51249;BME280;39642;47.556;18.728;2022-12-10T06:52:35;98218.81;;;21.25;38.46
51249;BME280;39642;47.556;18.728;2022-12-10T06:55:01;98210.87;;;21.25;38.35
51249;BME280;39642;47.556;18.728;2022-12-10T06:57:26;98213.41;;;21.27;38.28
51249;BME280;39642;47.556;18.728;2022-12-10T06:59:52;98214.25;;;21.27;38.42
51249;BME280;39642;47.556;18.728;2022-12-10T07:02:18;98215.06;;;21.28;38.40
51249;BME280;39642;47.556;18.728;2022-12-10T07:04:44;98214.12;;;21.29;38.32
51249;BME280;39642;47.556;18.728;2022-12-10T07:07:10;98223.72;;;21.30;38.38
51249;BME280;39642;47.556;18.728;2022-12-10T07:09:36;98228.06;;;21.31;38.36
51249;BME280;39642;47.556;18.728;2022-12-10T07:12:02;98229.72;;;21.32;38.38
51249;BME280;39642;47.556;18.728;2022-12-10T07:14:28;98226.13;;;21.33;38.30
51249;BME280;39642;47.556;18.728;2022-12-10T07:16:54;98224.31;;;21.33;38.09
51249;BME280;39642;47.556;18.728;2022-12-10T07:19:19;98237.53;;;21.33;38.21
51249;BME280;39642;47.556;18.728;2022-12-10T07:21:45;98237.44;;;21.35;38.21
51249;BME280;39642;47.556;18.728;2022-12-10T07:24:16;98228.62;;;21.34;38.21
51249;BME280;39642;47.556;18.728;2022-12-10T07:26:44;98209.97;;;21.36;38.21
51249;BME280;39642;47.556;18.728;2022-12-10T07:29:16;98196.84;;;21.34;38.14
51249;BME280;39642;47.556;18.728;2022-12-10T07:31:42;98188.91;;;21.34;38.16
51249;BME280;39642;47.556;18.728;2022-12-10T07:34:09;98182.78;;;21.34;38.06
51249;BME280;39642;47.556;18.728;2022-12-10T07:36:35;98184.47;;;21.35;38.13
51249;BME280;39642;47.556;18.728;2022-12-10T07:39:05;98190.59;;;21.35;38.19
51249;BME280;39642;47.556;18.728;2022-12-10T07:41:31;98193.25;;;21.35;38.11
51249;BME280;39642;47.556;18.728;2022-12-10T07:43:57;98201.19;;;21.35;38.11
51249;BME280;39642;47.556;18.728;2022-12-10T07:46:29;98206.47;;;21.35;37.91
51249;BME280;39642;47.556;18.728;2022-12-10T07:48:55;98207.44;;;21.34;38.04
51249;BME280;39642;47.556;18.728;2022-12-10T07:51:21;98219.84;;;21.34;38.00
51249;BME280;39642;47.556;18.728;2022-12-10T07:53:51;98222.50;;;21.34;38.07
51249;BME280;39642;47.556;18.728;2022-12-10T07:56:17;98219.84;;;21.34;38.04
51249;BME280;39642;47.556;18.728;2022-12-10T07:58:44;98221.53;;;21.35;38.13
51249;BME280;39642;47.556;18.728;2022-12-10T08:01:13;98218.88;;;21.35;38.13
51249;BME280;39642;47.556;18.728;2022-12-10T08:03:39;98210.94;;;21.35;38.05
51249;BME280;39642;47.556;18.728;2022-12-10T08:06:14;98211.78;;;21.35;38.19
51249;BME280;39642;47.556;18.728;2022-12-10T08:08:42;98218.72;;;21.36;38.15
51249;BME280;39642;47.556;18.728;2022-12-10T08:11:08;98221.38;;;21.36;38.05
51249;BME280;39642;47.556;18.728;2022-12-10T08:13:35;98205.38;;;21.38;38.13
51249;BME280;39642;47.556;18.728;2022-12-10T08:16:10;98192.97;;;21.38;37.92
51249;BME280;39642;47.556;18.728;2022-12-10T08:18:36;98183.19;;;21.39;37.91
51249;BME280;39642;47.556;18.728;2022-12-10T08:21:07;98197.31;;;21.39;37.97
51249;BME280;39642;47.556;18.728;2022-12-10T08:23:34;98199.81;;;21.41;38.00
51249;BME280;39642;47.556;18.728;2022-12-10T08:26:04;98215.59;;;21.42;37.81
51249;BME280;39642;47.556;18.728;2022-12-10T08:28:30;98218.13;;;21.44;37.86
51249;BME280;39642;47.556;18.728;2022-12-10T08:30:56;98218.13;;;21.44;37.88
51249;BME280;39642;47.556;18.728;2022-12-10T08:33:22;98208.34;;;21.45;37.59
51249;BME280;39642;47.556;18.728;2022-12-10T08:35:48;98203.06;;;21.45;37.75
51249;BME280;39642;47.556;18.728;2022-12-10T08:38:14;98210.87;;;21.46;37.67
51249;BME280;39642;47.556;18.728;2022-12-10T08:40:40;98213.53;;;21.46;37.66
51249;BME280;39642;47.556;18.728;2022-12-10T08:43:07;98212.41;;;21.49;37.34
51249;BME280;39642;47.556;18.728;2022-12-10T08:45:33;98211.44;;;21.50;37.31
51249;BME280;39642;47.556;18.728;2022-12-10T08:48:00;98223.72;;;21.51;37.33
51249;BME280;39642;47.556;18.728;2022-12-10T08:50:27;98234.16;;;21.52;37.33
51249;BME280;39642;47.556;18.728;2022-12-10T08:52:52;98245.72;;;21.51;37.31
51249;BME280;39642;47.556;18.728;2022-12-10T08:55:18;98247.41;;;21.52;37.34
51249;BME280;39642;47.556;18.728;2022-12-10T08:57:44;98253.56;;;21.53;37.35
51249;BME280;39642;47.556;18.728;2022-12-10T09:00:11;98261.63;;;21.51;37.37
51249;BME280;39642;47.556;18.728;2022-12-10T09:02:38;98267.88;;;21.50;37.41
51249;BME280;39642;47.556;18.728;2022-12-10T09:05:05;98260.91;;;21.49;37.47
51249;BME280;39642;47.556;18.728;2022-12-10T09:07:31;98252.12;;;21.49;37.50
51249;BME280;39642;47.556;18.728;2022-12-10T09:09:57;98246.00;;;21.48;37.43
51249;BME280;39642;47.556;18.728;2022-12-10T09:12:23;98248.66;;;21.48;37.42
51249;BME280;39642;47.556;18.728;2022-12-10T09:14:49;98258.38;;;21.48;37.50
51249;BME280;39642;47.556;18.728;2022-12-10T09:17:15;98260.22;;;21.47;37.50
51249;BME280;39642;47.556;18.728;2022-12-10T09:19:41;98265.50;;;21.47;37.48
51249;BME280;39642;47.556;18.728;2022-12-10T09:22:07;98253.25;;;21.46;37.48
51249;BME280;39642;47.556;18.728;2022-12-10T09:24:34;98255.91;;;21.46;37.39
51249;BME280;39642;47.556;18.728;2022-12-10T09:27:00;98252.38;;;21.46;37.37
51249;BME280;39642;47.556;18.728;2022-12-10T09:29:27;98263.13;;;21.44;37.45
51249;BME280;39642;47.556;18.728;2022-12-10T09:31:54;98262.16;;;21.45;37.43
51249;BME280;39642;47.556;18.728;2022-12-10T09:34:20;98249.75;;;21.46;37.35
51249;BME280;39642;47.556;18.728;2022-12-10T09:36:47;98238.31;;;21.45;37.44
51249;BME280;39642;47.556;18.728;2022-12-10T09:39:13;98237.47;;;21.45;37.33
51249;BME280;39642;47.556;18.728;2022-12-10T09:44:23;98226.78;;;21.46;37.27
51249;BME280;39642;47.556;18.728;2022-12-10T09:46:57;98235.53;;;21.47;37.32
51249;BME280;39642;47.556;18.728;2022-12-10T09:52:19;98223.97;;;21.48;37.19
51249;BME280;39642;47.556;18.728;2022-12-10T09:54:54;98212.41;;;21.49;37.14
51249;BME280;39642;47.556;18.728;2022-12-10T09:57:26;98206.97;;;21.50;37.11
51249;BME280;39642;47.556;18.728;2022-12-10T09:59:54;98194.59;;;21.51;37.11
51249;BME280;39642;47.556;18.728;2022-12-10T10:02:29;98197.22;;;21.51;36.87
51249;BME280;39642;47.556;18.728;2022-12-10T10:05:11;98192.91;;;21.50;37.20
51249;BME280;39642;47.556;18.728;2022-12-10T10:07:45;98191.34;;;21.47;37.31
51249;BME280;39642;47.556;18.728;2022-12-10T10:10:31;98185.34;;;21.45;37.07
51249;BME280;39642;47.556;18.728;2022-12-10T10:13:12;98173.22;;;21.42;36.65
51249;BME280;39642;47.556;18.728;2022-12-10T10:15:43;98168.06;;;21.41;36.54
51249;BME280;39642;47.556;18.728;2022-12-10T10:18:35;98162.75;;;21.41;36.57
51249;BME280;39642;47.556;18.728;2022-12-10T10:21:15;98164.44;;;21.42;36.22
51249;BME280;39642;47.556;18.728;2022-12-10T10:23:43;98158.16;;;21.43;36.48
51249;BME280;39642;47.556;18.728;2022-12-10T10:26:10;98154.69;;;21.42;36.58
51249;BME280;39642;47.556;18.728;2022-12-10T10:28:38;98172.28;;;21.44;36.45
51249;BME280;39642;47.556;18.728;2022-12-10T10:31:39;98161.81;;;21.42;36.55
51249;BME280;39642;47.556;18.728;2022-12-10T10:34:15;98163.47;;;21.43;36.48
51249;BME280;39642;47.556;18.728;2022-12-10T10:36:42;98174.06;;;21.43;36.43
51249;BME280;39642;47.556;18.728;2022-12-10T10:41:52;98160.69;;;21.45;36.50
51249;BME280;39642;47.556;18.728;2022-12-10T10:44:21;98157.22;;;21.44;36.60
51249;BME280;39642;47.556;18.728;2022-12-10T10:46:49;98159.03;;;21.44;36.57
51249;BME280;39642;47.556;18.728;2022-12-10T10:49:24;98159.88;;;21.44;36.70
51249;BME280;39642;47.556;18.728;2022-12-10T10:51:52;98163.47;;;21.43;36.56
51249;BME280;39642;47.556;18.728;2022-12-10T10:54:33;98175.75;;;21.44;36.78
51249;BME280;39642;47.556;18.728;2022-12-10T10:57:03;98170.47;;;21.44;36.68
51249;BME280;39642;47.556;18.728;2022-12-10T10:59:32;98176.56;;;21.45;36.55
51249;BME280;39642;47.556;18.728;2022-12-10T11:02:18;98180.06;;;21.45;36.63
51249;BME280;39642;47.556;18.728;2022-12-10T11:04:53;98178.25;;;21.46;36.66
51249;BME280;39642;47.556;18.728;2022-12-10T11:07:21;98179.09;;;21.46;36.71
51249;BME280;39642;47.556;18.728;2022-12-10T11:09:49;98180.75;;;21.47;36.69
51249;BME280;39642;47.556;18.728;2022-12-10T11:12:39;98186.06;;;21.47;36.66
51249;BME280;39642;47.556;18.728;2022-12-10T11:15:30;98179.81;;;21.48;36.63
51249;BME280;39642;47.556;18.728;2022-12-10T11:17:56;98181.47;;;21.49;36.68
51249;BME280;39642;47.556;18.728;2022-12-10T11:20:32;98166.41;;;21.50;36.64
51249;BME280;39642;47.556;18.728;2022-12-10T11:23:09;98167.94;;;21.52;36.64
51249;BME280;39642;47.556;18.728;2022-12-10T11:25:51;98155.69;;;21.51;36.70
51249;BME280;39642;47.556;18.728;2022-12-10T11:28:42;98152.91;;;21.53;36.67
51249;BME280;39642;47.556;18.728;2022-12-10T11:44:24;98126.28;;;21.54;36.43
51249;BME280;39642;47.556;18.728;2022-12-10T11:47:18;98120.97;;;21.54;36.40
51249;BME280;39642;47.556;18.728;2022-12-10T11:52:40;98106.06;;;21.53;36.41
51249;BME280;39642;47.556;18.728;2022-12-10T12:00:19;98093.78;;;21.52;36.50
51249;BME280;39642;47.556;18.728;2022-12-10T12:11:20;98083.62;;;21.48;36.47
51249;BME280;39642;47.556;18.728;2022-12-10T12:13:54;98080.13;;;21.47;36.59
51249;BME280;39642;47.556;18.728;2022-12-10T12:16:27;98081.13;;;21.46;36.47
51249;BME280;39642;47.556;18.728;2022-12-10T12:19:00;98088.22;;;21.46;36.82
51249;BME280;39642;47.556;18.728;2022-12-10T12:21:27;98074.13;;;21.45;36.81
51249;BME280;39642;47.556;18.728;2022-12-10T12:24:01;98068.00;;;21.45;36.58
51249;BME280;39642;47.556;18.728;2022-12-10T12:26:44;98064.37;;;21.46;36.60
51249;BME280;39642;47.556;18.728;2022-12-10T12:31:58;98060.91;;;21.45;36.54
51249;BME280;39642;47.556;18.728;2022-12-10T12:37:12;98070.53;;;21.46;36.55
51249;BME280;39642;47.556;18.728;2022-12-10T12:39:52;98069.53;;;21.47;36.48
51249;BME280;39642;47.556;18.728;2022-12-10T12:42:51;98066.91;;;21.47;36.47
51249;BME280;39642;47.556;18.728;2022-12-10T12:45:21;98065.09;;;21.48;36.53
51249;BME280;39642;47.556;18.728;2022-12-10T12:53:38;98074.84;;;21.47;36.67
51249;BME280;39642;47.556;18.728;2022-12-10T12:56:09;98073.19;;;21.46;36.48
51249;BME280;39642;47.556;18.728;2022-12-10T13:03:57;98075.97;;;21.45;36.53
51249;BME280;39642;47.556;18.728;2022-12-10T13:06:27;98076.94;;;21.44;36.49
51249;BME280;39642;47.556;18.728;2022-12-10T13:09:38;98081.37;;;21.43;36.43
51249;BME280;39642;47.556;18.728;2022-12-10T13:12:31;98089.31;;;21.43;36.31
51249;BME280;39642;47.556;18.728;2022-12-10T13:14:36;98087.66;;;21.42;36.22
51249;BME280;39642;47.556;18.728;2022-12-10T13:23:00;98093.34;;;21.37;36.26
51249;BME280;39642;47.556;18.728;2022-12-10T13:31:21;98085.53;;;21.36;36.05
51249;BME280;39642;47.556;18.728;2022-12-10T13:39:32;98089.28;;;21.33;35.86
51249;BME280;39642;47.556;18.728;2022-12-10T13:45:03;98084.41;;;21.29;35.73
51249;BME280;39642;47.556;18.728;2022-12-10T13:50:06;98085.94;;;21.21;35.79
51249;BME280;39642;47.556;18.728;2022-12-10T13:55:33;98074.75;;;21.18;35.78
51249;BME280;39642;47.556;18.728;2022-12-10T13:58:09;98081.28;;;21.14;35.65
51249;BME280;39642;47.556;18.728;2022-12-10T14:00:51;98080.59;;;21.12;36.04
51249;BME280;39642;47.556;18.728;2022-12-10T14:08:34;98072.22;;;21.07;35.95
51249;BME280;39642;47.556;18.728;2022-12-10T14:11:04;98085.31;;;21.08;36.28
51249;BME280;39642;47.556;18.728;2022-12-10T14:13:45;98086.03;;;21.10;36.13
51249;BME280;39642;47.556;18.728;2022-12-10T14:16:14;98078.81;;;21.12;36.24
51249;BME280;39642;47.556;18.728;2022-12-10T14:18:42;98076.84;;;21.14;35.96
51249;BME280;39642;47.556;18.728;2022-12-10T14:21:14;98083.81;;;21.15;36.08
51249;BME280;39642;47.556;18.728;2022-12-10T14:23:45;98081.03;;;21.17;36.19
51249;BME280;39642;47.556;18.728;2022-12-10T14:26:14;98074.75;;;21.18;36.15
51249;BME280;39642;47.556;18.728;2022-12-10T14:28:50;98079.94;;;21.19;36.24
51249;BME280;39642;47.556;18.728;2022-12-10T14:31:27;98071.97;;;21.19;36.02
51249;BME280;39642;47.556;18.728;2022-12-10T14:33:56;98069.22;;;21.21;35.89
51249;BME280;39642;47.556;18.728;2022-12-10T14:36:46;98074.34;;;21.23;35.84
51249;BME280;39642;47.556;18.728;2022-12-10T14:39:32;98071.56;;;21.24;35.85
51249;BME280;39642;47.556;18.728;2022-12-10T14:42:01;98070.75;;;21.24;35.75
51249;BME280;39642;47.556;18.728;2022-12-10T14:44:29;98063.63;;;21.24;35.64